Time;durP1;ratioP1;P1;durP2;ratioP2;P2;SDS_P1;SDS_P2;PMS_P1;PMS_P2;Temp;Humidity;BMP_temperature;BMP_pressure;BME280_temperature;BME280_humidity;BME280_pressure;Samples;Min_cycle;Max_cycle;Signal;HPM_P1;HPM_P2
2021/05/09 00:01:37;;;;;;;7.45;4.05;;;14.40;99.90;;;;;;4191957;28;20106;-73
2021/05/09 00:03:37;;;;;;;11.05;5.68;;;14.40;99.90;;;;;;4193754;28;20021;-72
2021/05/09 00:05:38;;;;;;;14.43;6.90;;;14.40;99.90;;;;;;4194051;28;20043;-72
2021/05/09 00:07:38;;;;;;;14.30;7.30;;;14.30;99.90;;;;;;4193551;28;20029;-73
2021/05/09 00:09:39;;;;;;;12.98;7.10;;;14.30;99.90;;;;;;4194006;28;20055;-73
2021/05/09 00:11:40;;;;;;;10.82;6.15;;;14.30;99.90;;;;;;4193749;28;20048;-73
2021/05/09 00:13:41;;;;;;;9.95;5.80;;;14.30;99.90;;;;;;4191890;28;20055;-72
2021/05/09 00:15:42;;;;;;;10.82;5.40;;;14.30;99.90;;;;;;4193752;28;20116;-73
2021/05/09 00:17:43;;;;;;;8.38;4.63;;;14.20;99.90;;;;;;4171301;28;20082;-72
2021/05/09 00:19:44;;;;;;;7.43;4.43;;;14.20;99.90;;;;;;4177008;28;20512;-73
2021/05/09 00:21:45;;;;;;;9.70;4.18;;;14.20;99.90;;;;;;4170671;28;20420;-73
2021/05/09 00:23:45;;;;;;;9.52;3.83;;;14.20;99.90;;;;;;4189060;28;20111;-73
2021/05/09 00:25:46;;;;;;;5.22;3.03;;;14.20;99.90;;;;;;4193365;28;20017;-72
2021/05/09 00:27:47;;;;;;;6.85;3.50;;;14.20;99.90;;;;;;4193462;28;20108;-73
2021/05/09 00:29:47;;;;;;;5.18;3.00;;;14.20;99.90;;;;;;4193500;28;20380;-73
2021/05/09 00:31:48;;;;;;;6.07;3.30;;;14.20;99.90;;;;;;4191570;28;20029;-73
2021/05/09 00:33:48;;;;;;;5.03;2.45;;;14.20;99.90;;;;;;4193324;28;20107;-72
2021/05/09 00:35:49;;;;;;;8.57;3.08;;;14.20;99.90;;;;;;4191857;28;20028;-73
2021/05/09 00:37:49;;;;;;;4.32;2.85;;;14.20;99.90;;;;;;4190423;28;20104;-72
2021/05/09 00:39:50;;;;;;;5.40;3.08;;;14.20;99.90;;;;;;4176936;28;20136;-72
2021/05/09 00:42:00;;;;;;;4.65;2.58;;;14.20;99.90;;;;;;4188619;28;20036;-73
2021/05/09 00:44:00;;;;;;;4.25;2.60;;;14.20;99.90;;;;;;4174625;28;20464;-73
2021/05/09 00:46:01;;;;;;;7.22;2.60;;;14.20;99.90;;;;;;4193168;28;20067;-73
2021/05/09 00:48:03;;;;;;;4.88;2.60;;;14.20;99.90;;;;;;4191237;28;20025;-73
2021/05/09 00:50:04;;;;;;;6.40;2.50;;;14.10;99.90;;;;;;4192519;28;20032;-73
2021/05/09 00:52:09;;;;;;;4.20;2.53;;;14.20;99.90;;;;;;4192706;28;20040;-73
2021/05/09 00:54:11;;;;;;;4.63;2.20;;;14.10;99.90;;;;;;4192819;28;20040;-72
2021/05/09 00:56:15;;;;;;;3.88;2.30;;;14.10;99.90;;;;;;4192647;28;20033;-72
2021/05/09 00:58:17;;;;;;;6.22;2.97;;;14.10;99.90;;;;;;4193136;28;20173;-72
2021/05/09 01:00:19;;;;;;;7.50;2.90;;;14.10;99.90;;;;;;4193157;28;20537;-72
2021/05/09 01:02:19;;;;;;;5.93;2.80;;;14.00;99.90;;;;;;4192716;28;20040;-72
2021/05/09 01:04:21;;;;;;;5.57;2.45;;;14.00;99.90;;;;;;4192769;28;20036;-73
2021/05/09 01:06:22;;;;;;;5.23;2.87;;;14.00;99.90;;;;;;4190695;28;20029;-72
2021/05/09 01:08:23;;;;;;;3.47;2.45;;;13.90;99.90;;;;;;4192489;28;20036;-72
2021/05/09 01:10:24;;;;;;;4.95;2.80;;;13.90;99.90;;;;;;4192861;28;20032;-72
2021/05/09 01:12:24;;;;;;;8.75;2.65;;;13.90;99.90;;;;;;4192763;28;20029;-73
2021/05/09 01:14:25;;;;;;;5.05;2.45;;;13.90;99.90;;;;;;4190832;28;20654;-73
2021/05/09 01:16:25;;;;;;;4.30;2.25;;;13.90;99.90;;;;;;4192366;28;20720;-73
2021/05/09 01:18:27;;;;;;;4.53;2.47;;;13.90;99.90;;;;;;4192590;28;20029;-73
2021/05/09 01:20:33;;;;;;;5.00;2.30;;;14.00;99.90;;;;;;4192268;28;20034;-72
2021/05/09 01:22:34;;;;;;;4.72;2.50;;;13.90;99.90;;;;;;4191832;28;20043;-73
2021/05/09 01:24:35;;;;;;;3.92;2.50;;;13.90;99.90;;;;;;4192250;28;20029;-73
2021/05/09 01:26:35;;;;;;;4.75;2.25;;;13.90;99.90;;;;;;4192577;28;20089;-73
2021/05/09 01:28:36;;;;;;;5.50;2.95;;;13.80;99.90;;;;;;4192221;28;20043;-73
2021/05/09 01:30:37;;;;;;;7.07;2.72;;;13.80;99.90;;;;;;4190879;28;20119;-72
2021/05/09 01:32:37;;;;;;;5.15;2.40;;;13.80;99.90;;;;;;4190738;28;20112;-72
2021/05/09 01:34:38;;;;;;;3.72;2.22;;;13.80;99.90;;;;;;4192228;28;20067;-73
2021/05/09 01:36:39;;;;;;;4.13;2.20;;;13.80;99.90;;;;;;4192532;28;20383;-73
2021/05/09 01:38:39;;;;;;;3.17;2.17;;;13.80;99.90;;;;;;4191434;28;20411;-72
2021/05/09 01:40:40;;;;;;;3.83;2.10;;;13.80;99.90;;;;;;4174740;28;20136;-73
2021/05/09 01:42:41;;;;;;;5.30;2.03;;;13.80;99.90;;;;;;4190048;28;20525;-72
2021/05/09 01:44:53;;;;;;;4.00;2.13;;;13.70;99.90;;;;;;4190355;28;20111;-73
2021/05/09 01:46:54;;;;;;;4.22;2.35;;;13.70;99.90;;;;;;4190526;28;20158;-73
2021/05/09 01:48:55;;;;;;;2.97;1.92;;;13.80;99.90;;;;;;4190570;28;20444;-72
2021/05/09 01:50:57;;;;;;;3.13;1.95;;;13.70;99.90;;;;;;4173124;28;20025;-73
2021/05/09 01:53:00;;;;;;;6.43;2.10;;;13.70;99.90;;;;;;4190750;28;20029;-73
2021/05/09 01:55:04;;;;;;;3.88;2.00;;;13.70;99.90;;;;;;4188929;28;20024;-73
2021/05/09 01:57:05;;;;;;;4.32;2.35;;;13.70;99.90;;;;;;4175199;28;20034;-72
2021/05/09 01:59:07;;;;;;;4.50;1.77;;;13.70;99.90;;;;;;4175869;28;20037;-72
2021/05/09 02:01:09;;;;;;;;;;;13.70;99.90;;;;;;4177476;28;20067;-72
2021/05/09 02:03:10;;;;;;;3.95;1.95;;;13.70;99.90;;;;;;4192184;28;19954;-73
2021/05/09 02:05:12;;;;;;;3.35;2.35;;;13.70;99.90;;;;;;4192155;28;20052;-72
2021/05/09 02:07:12;;;;;;;2.78;2.05;;;13.70;99.90;;;;;;4190913;28;20055;-73
2021/05/09 02:09:13;;;;;;;3.97;2.00;;;13.70;99.90;;;;;;4190373;28;20025;-73
2021/05/09 02:11:13;;;;;;;3.60;1.85;;;13.70;99.90;;;;;;4192015;28;20110;-73
2021/05/09 02:13:14;;;;;;;6.43;2.25;;;13.70;99.90;;;;;;4192376;28;20036;-72
2021/05/09 02:15:15;;;;;;;5.32;2.33;;;13.70;99.90;;;;;;4191661;28;20056;-72
2021/05/09 02:17:15;;;;;;;3.15;1.92;;;13.70;99.90;;;;;;4190699;28;20051;-72
2021/05/09 02:19:16;;;;;;;6.30;2.42;;;13.70;99.90;;;;;;4190731;28;20114;-72
2021/05/09 02:21:16;;;;;;;6.38;2.40;;;13.70;99.90;;;;;;4190450;28;20129;-73
2021/05/09 02:23:17;;;;;;;4.40;2.38;;;13.60;99.90;;;;;;4192338;28;20653;-72
2021/05/09 02:25:18;;;;;;;3.67;1.92;;;13.70;99.90;;;;;;4191765;28;20033;-73
2021/05/09 02:27:18;;;;;;;5.45;1.90;;;13.60;99.90;;;;;;4191889;28;20043;-72
2021/05/09 02:29:19;;;;;;;3.35;2.05;;;13.60;99.90;;;;;;4192082;28;20032;-72
2021/05/09 02:31:19;;;;;;;5.13;2.38;;;13.60;99.90;;;;;;4191882;28;20499;-73
2021/05/09 02:33:21;;;;;;;4.05;2.15;;;13.60;99.90;;;;;;4191953;28;20028;-72
2021/05/09 02:35:22;;;;;;;5.60;2.38;;;13.60;99.90;;;;;;4189868;28;20484;-72
2021/05/09 02:37:22;;;;;;;4.60;2.60;;;13.50;99.90;;;;;;4192154;28;20021;-73
2021/05/09 02:39:23;;;;;;;3.33;2.40;;;13.50;99.90;;;;;;4190312;28;20119;-72
2021/05/09 02:41:24;;;;;;;4.22;2.00;;;13.50;99.90;;;;;;4191782;28;20024;-72
2021/05/09 02:43:25;;;;;;;3.40;2.22;;;13.50;99.90;;;;;;4191943;28;20171;-72
2021/05/09 02:45:26;;;;;;;5.53;2.47;;;13.50;99.90;;;;;;4189964;28;20376;-73
2021/05/09 02:47:29;;;;;;;4.45;2.45;;;13.50;99.90;;;;;;4191968;28;20024;-73
2021/05/09 02:49:30;;;;;;;4.65;2.42;;;13.50;99.90;;;;;;4190587;28;20037;-72
2021/05/09 02:51:30;;;;;;;4.25;2.20;;;13.50;99.90;;;;;;4189571;28;20071;-72
2021/05/09 02:53:31;;;;;;;4.10;2.03;;;13.50;99.90;;;;;;4191839;28;20112;-73
2021/05/09 02:55:32;;;;;;;3.90;1.75;;;13.50;99.90;;;;;;4191492;28;20026;-73
2021/05/09 02:57:32;;;;;;;3.92;2.10;;;13.50;99.90;;;;;;4191759;28;20029;-73
2021/05/09 02:59:33;;;;;;;3.00;2.08;;;13.50;99.90;;;;;;4191743;28;20125;-72
2021/05/09 03:01:34;;;;;;;4.70;2.33;;;13.50;99.90;;;;;;4191270;28;20037;-73
2021/05/09 03:03:34;;;;;;;3.72;2.00;;;13.50;99.90;;;;;;4193418;28;20036;-73
2021/05/09 03:05:35;;;;;;;4.07;2.00;;;13.40;99.90;;;;;;4192952;28;20043;-72
2021/05/09 03:07:35;;;;;;;3.90;2.42;;;13.40;99.90;;;;;;4193233;28;20033;-72
2021/05/09 03:09:36;;;;;;;4.38;2.28;;;13.50;99.90;;;;;;4193005;28;20036;-72
2021/05/09 03:11:37;;;;;;;2.63;2.03;;;13.40;99.90;;;;;;4194555;28;20021;-72
2021/05/09 03:13:37;;;;;;;3.47;2.33;;;13.40;99.90;;;;;;4193460;28;20020;-72
2021/05/09 03:15:38;;;;;;;3.53;2.13;;;13.40;99.90;;;;;;4192669;28;20451;-72
2021/05/09 03:17:38;;;;;;;4.07;2.40;;;13.30;99.90;;;;;;4194972;28;20127;-72
2021/05/09 03:19:39;;;;;;;3.38;2.17;;;13.30;99.90;;;;;;4194770;28;20435;-71
2021/05/09 03:21:41;;;;;;;3.47;2.15;;;13.30;99.90;;;;;;4192526;28;20055;-71
2021/05/09 03:23:42;;;;;;;5.90;2.70;;;13.30;99.90;;;;;;4194584;28;20044;-72
2021/05/09 03:25:43;;;;;;;6.30;2.53;;;13.30;99.90;;;;;;4192594;28;20039;-72
2021/05/09 03:27:43;;;;;;;4.88;2.88;;;13.20;99.90;;;;;;4194693;28;20181;-71
2021/05/09 03:29:44;;;;;;;6.57;2.47;;;13.20;99.90;;;;;;4176413;28;20033;-71
2021/05/09 03:31:44;;;;;;;3.83;2.13;;;13.10;99.90;;;;;;4192507;28;20535;-72
2021/05/09 03:33:45;;;;;;;4.43;2.45;;;13.10;99.90;;;;;;4194379;28;20492;-72
2021/05/09 03:35:46;;;;;;;4.13;2.47;;;13.10;99.90;;;;;;4194052;28;20055;-72
2021/05/09 03:37:46;;;;;;;3.40;2.22;;;13.10;99.90;;;;;;4194542;28;20170;-72
2021/05/09 03:39:47;;;;;;;4.80;2.45;;;13.10;99.90;;;;;;4194387;28;20045;-71
2021/05/09 03:41:47;;;;;;;5.13;2.72;;;13.00;99.90;;;;;;4192513;28;20508;-71
2021/05/09 03:43:49;;;;;;;3.20;2.15;;;13.00;99.90;;;;;;4194172;28;20028;-71
2021/05/09 03:45:49;;;;;;;2.97;2.40;;;13.00;99.90;;;;;;4192225;28;20029;-71
2021/05/09 03:47:50;;;;;;;5.80;2.70;;;13.00;99.90;;;;;;4194299;28;20078;-72
2021/05/09 03:49:52;;;;;;;6.22;2.90;;;13.00;99.90;;;;;;4194346;28;20041;-72
2021/05/09 03:51:53;;;;;;;5.60;2.90;;;12.90;99.90;;;;;;4192128;28;20068;-71
2021/05/09 03:53:53;;;;;;;3.67;2.67;;;12.90;99.90;;;;;;4192184;28;20115;-72
2021/05/09 03:55:54;;;;;;;5.10;2.67;;;12.90;99.90;;;;;;4193647;28;20090;-71
2021/05/09 03:57:55;;;;;;;3.85;2.42;;;12.90;99.90;;;;;;4194201;28;20029;-71
2021/05/09 03:59:55;;;;;;;4.07;2.70;;;13.00;99.90;;;;;;4194485;28;20067;-72
2021/05/09 04:01:56;;;;;;;3.53;2.25;;;12.90;99.90;;;;;;4185011;28;20021;-72
2021/05/09 04:03:57;;;;;;;3.30;2.08;;;12.90;99.90;;;;;;4175927;28;20040;-71
2021/05/09 04:05:58;;;;;;;3.30;2.50;;;12.90;99.90;;;;;;4177347;28;20045;-72
2021/05/09 04:07:58;;;;;;;3.65;2.60;;;12.90;99.90;;;;;;4175695;28;20029;-72
2021/05/09 04:09:59;;;;;;;5.93;2.53;;;12.90;99.90;;;;;;4177321;28;20029;-71
2021/05/09 04:12:00;;;;;;;5.20;2.42;;;12.90;99.90;;;;;;4191675;28;20492;-72
2021/05/09 04:14:01;;;;;;;3.45;2.42;;;12.90;99.90;;;;;;4192911;28;20066;-72
2021/05/09 04:16:01;;;;;;;4.57;2.45;;;12.90;99.90;;;;;;4191474;28;20524;-72
2021/05/09 04:18:02;;;;;;;10.07;2.50;;;12.90;99.90;;;;;;4192015;28;20037;-72
2021/05/09 04:20:03;;;;;;;3.58;2.78;;;12.90;99.90;;;;;;4193177;28;20480;-72
2021/05/09 04:22:06;;;;;;;4.63;2.50;;;12.90;99.90;;;;;;4192756;28;20370;-72
2021/05/09 04:24:08;;;;;;;5.35;2.47;;;12.90;99.90;;;;;;4191556;28;20033;-72
2021/05/09 04:26:08;;;;;;;3.75;2.33;;;12.80;99.90;;;;;;4193016;28;20036;-72
2021/05/09 04:28:09;;;;;;;6.78;2.78;;;12.90;99.90;;;;;;4193082;28;20045;-72
2021/05/09 04:30:10;;;;;;;5.50;2.60;;;12.80;99.90;;;;;;4193282;28;20466;-72
2021/05/09 04:32:11;;;;;;;6.78;3.03;;;12.90;99.90;;;;;;4193097;28;20143;-72
2021/05/09 04:34:11;;;;;;;3.78;2.65;;;12.80;99.90;;;;;;4191674;28;20421;-72
2021/05/09 04:36:12;;;;;;;4.03;2.25;;;12.90;99.90;;;;;;4193215;28;20041;-72
2021/05/09 04:38:13;;;;;;;3.25;2.40;;;12.90;99.90;;;;;;4193048;28;20037;-72
2021/05/09 04:40:14;;;;;;;5.70;2.33;;;12.90;99.90;;;;;;4192887;28;20503;-72
2021/05/09 04:42:15;;;;;;;4.45;2.67;;;12.90;99.90;;;;;;4191538;28;20674;-72
2021/05/09 04:44:16;;;;;;;4.70;2.20;;;12.90;99.90;;;;;;4193260;28;20039;-72
2021/05/09 04:46:16;;;;;;;4.05;2.42;;;12.90;99.90;;;;;;4193461;28;20028;-72
2021/05/09 04:48:17;;;;;;;2.85;2.25;;;12.90;99.90;;;;;;4193294;28;20032;-72
2021/05/09 04:50:18;;;;;;;6.45;2.80;;;12.90;99.90;;;;;;4193048;28;20502;-72
2021/05/09 04:52:18;;;;;;;4.75;2.85;;;13.00;99.90;;;;;;4186464;28;20029;-72
2021/05/09 04:54:19;;;;;;;4.30;2.30;;;13.00;99.90;;;;;;4174751;28;20572;-72
2021/05/09 04:56:20;;;;;;;4.38;2.50;;;13.00;99.90;;;;;;4188276;28;20039;-72
2021/05/09 04:58:21;;;;;;;2.17;1.98;;;13.00;99.90;;;;;;4192732;28;20033;-72
2021/05/09 05:00:22;;;;;;;3.70;2.22;;;13.00;99.90;;;;;;4193035;28;20430;-72
2021/05/09 05:02:22;;;;;;;3.47;2.50;;;13.00;99.90;;;;;;4193039;28;20021;-72
2021/05/09 05:04:23;;;;;;;4.65;2.40;;;13.10;99.90;;;;;;4193862;28;20033;-72
2021/05/09 05:06:23;;;;;;;2.95;2.22;;;13.10;99.90;;;;;;4193871;28;20483;-72
2021/05/09 05:08:26;;;;;;;3.67;2.10;;;13.10;99.90;;;;;;4193356;28;20046;-72
2021/05/09 05:10:27;;;;;;;2.53;1.95;;;13.10;99.90;;;;;;4193001;28;20055;-72
2021/05/09 05:12:28;;;;;;;3.05;1.88;;;13.20;99.90;;;;;;4187824;28;20037;-72
2021/05/09 05:14:28;;;;;;;3.60;2.00;;;13.20;99.90;;;;;;4188381;28;20042;-72
2021/05/09 05:16:29;;;;;;;4.25;2.10;;;13.20;99.90;;;;;;4192424;28;20028;-72
2021/05/09 05:18:31;;;;;;;3.47;1.98;;;13.20;99.90;;;;;;4186535;28;20036;-72
2021/05/09 05:20:31;;;;;;;3.78;2.20;;;13.30;99.90;;;;;;4192772;28;20098;-72
2021/05/09 05:22:32;;;;;;;2.92;1.95;;;13.30;99.90;;;;;;4184042;28;20037;-72
2021/05/09 05:24:32;;;;;;;5.85;2.25;;;13.40;99.90;;;;;;4188602;28;20032;-72
2021/05/09 05:26:33;;;;;;;5.60;2.50;;;13.40;99.90;;;;;;4192883;28;20024;-72
2021/05/09 05:28:34;;;;;;;4.22;2.47;;;13.40;99.90;;;;;;4202651;28;20039;-72
2021/05/09 05:30:34;;;;;;;4.80;2.28;;;13.40;99.90;;;;;;4204544;28;20040;-72
2021/05/09 05:32:35;;;;;;;4.18;1.80;;;13.40;99.90;;;;;;4205590;28;20485;-72
2021/05/09 05:34:36;;;;;;;3.80;1.90;;;13.50;99.90;;;;;;4192853;28;20040;-72
2021/05/09 05:36:36;;;;;;;3.97;2.30;;;13.50;99.90;;;;;;4174237;28;20511;-72
2021/05/09 05:38:37;;;;;;;4.07;2.25;;;13.50;99.90;;;;;;4191441;28;20082;-72
2021/05/09 05:40:38;;;;;;;5.20;2.40;;;13.50;99.90;;;;;;4192853;28;20033;-72
2021/05/09 05:42:38;;;;;;;5.90;2.67;;;13.60;99.90;;;;;;4200051;28;20096;-72
2021/05/09 05:44:39;;;;;;;3.80;2.28;;;13.70;99.90;;;;;;4199328;28;20032;-72
2021/05/09 05:46:39;;;;;;;4.68;2.20;;;13.70;99.90;;;;;;4192390;28;20473;-72
2021/05/09 05:48:40;;;;;;;4.22;2.15;;;13.80;99.90;;;;;;4199619;28;20473;-72
2021/05/09 05:50:40;;;;;;;4.38;2.63;;;13.80;99.90;;;;;;4201229;28;20477;-72
2021/05/09 05:52:42;;;;;;;5.47;2.42;;;13.90;99.90;;;;;;4197390;28;20035;-72
2021/05/09 05:54:42;;;;;;;4.63;2.28;;;14.00;99.90;;;;;;4186781;28;20120;-72
2021/05/09 05:56:43;;;;;;;3.83;2.45;;;14.10;99.90;;;;;;4210977;28;20031;-72
2021/05/09 05:58:43;;;;;;;3.03;1.90;;;14.20;99.90;;;;;;4192674;28;20400;-72
2021/05/09 06:00:45;;;;;;;4.85;2.25;;;14.20;99.90;;;;;;4198712;28;20646;-72
2021/05/09 06:02:46;;;;;;;3.27;1.90;;;14.30;99.90;;;;;;4202420;28;20545;-72
2021/05/09 06:04:47;;;;;;;4.07;2.00;;;14.40;99.90;;;;;;4199938;28;20029;-72
2021/05/09 06:06:47;;;;;;;3.42;1.80;;;14.50;99.90;;;;;;4201386;28;20056;-72
2021/05/09 06:08:51;;;;;;;2.97;1.90;;;14.50;99.90;;;;;;4174699;28;20108;-72
2021/05/09 06:10:52;;;;;;;3.47;2.17;;;14.60;99.90;;;;;;4195875;28;20040;-72
2021/05/09 06:12:56;;;;;;;3.08;1.85;;;14.70;99.90;;;;;;4196129;28;20063;-72
2021/05/09 06:14:57;;;;;;;2.85;2.03;;;14.90;99.90;;;;;;4190979;28;20503;-72
2021/05/09 06:16:57;;;;;;;3.05;1.98;;;15.10;99.90;;;;;;4198943;28;20028;-72
2021/05/09 06:18:58;;;;;;;3.38;1.90;;;15.40;99.90;;;;;;4190671;28;20431;-72
2021/05/09 06:20:58;;;;;;;2.78;1.70;;;15.60;99.90;;;;;;4192170;28;20074;-72
2021/05/09 06:23:02;;;;;;;2.33;1.60;;;15.80;99.90;;;;;;4203936;28;20028;-72
2021/05/09 06:25:04;;;;;;;3.70;1.70;;;16.10;99.90;;;;;;4205455;28;20032;-72
2021/05/09 06:27:05;;;;;;;3.35;1.98;;;16.30;99.90;;;;;;4201417;28;20736;-73
2021/05/09 06:29:06;;;;;;;3.38;2.10;;;16.40;99.90;;;;;;4201008;28;20119;-72
2021/05/09 06:31:06;;;;;;;3.28;1.92;;;16.50;99.90;;;;;;4202362;28;20040;-72
2021/05/09 06:33:07;;;;;;;2.15;1.30;;;16.60;99.90;;;;;;4193845;28;20638;-72
2021/05/09 06:35:08;;;;;;;3.55;1.70;;;16.60;99.90;;;;;;4199535;28;20028;-72
2021/05/09 06:37:10;;;;;;;2.70;1.40;;;16.60;99.90;;;;;;4195478;28;20036;-73
2021/05/09 06:39:12;;;;;;;4.15;2.10;;;16.60;99.90;;;;;;4195136;28;20032;-72
2021/05/09 06:41:12;;;;;;;2.97;1.50;;;16.70;99.90;;;;;;4194836;28;20067;-74
2021/05/09 06:43:13;;;;;;;3.72;1.33;;;16.70;99.90;;;;;;4193344;28;20025;-73
2021/05/09 06:45:21;;;;;;;5.57;1.70;;;16.70;99.90;;;;;;4195082;28;20024;-74
2021/05/09 06:47:22;;;;;;;3.40;1.70;;;16.70;99.90;;;;;;4193710;28;20752;-74
2021/05/09 06:49:22;;;;;;;3.10;1.75;;;16.70;99.90;;;;;;4194645;28;20025;-73
2021/05/09 06:51:23;;;;;;;2.50;1.45;;;16.70;99.90;;;;;;4196846;28;20123;-70
2021/05/09 06:53:24;;;;;;;3.08;1.70;;;16.70;99.90;;;;;;4194891;28;20031;-70
2021/05/09 06:55:25;;;;;;;3.03;1.67;;;16.70;99.90;;;;;;4200036;28;20032;-71
2021/05/09 06:57:26;;;;;;;4.13;2.20;;;16.80;99.90;;;;;;4198019;28;20114;-70
2021/05/09 06:59:26;;;;;;;2.40;1.50;;;16.80;99.90;;;;;;4199649;28;20044;-71
2021/05/09 07:01:27;;;;;;;4.57;1.48;;;16.80;99.90;;;;;;4203312;28;20535;-70
2021/05/09 07:03:28;;;;;;;3.72;1.80;;;16.80;99.90;;;;;;4210571;28;20036;-71
2021/05/09 07:05:28;;;;;;;2.05;1.52;;;16.90;99.90;;;;;;4199944;28;20032;-70
2021/05/09 07:07:29;;;;;;;3.75;1.60;;;16.90;99.90;;;;;;4203620;28;20035;-70
2021/05/09 07:09:29;;;;;;;2.83;1.42;;;16.90;99.90;;;;;;4195536;28;20046;-70
2021/05/09 07:11:31;;;;;;;3.15;1.50;;;16.90;99.90;;;;;;4211064;28;20031;-70
2021/05/09 07:13:31;;;;;;;2.30;1.58;;;17.00;99.90;;;;;;4198919;28;20117;-70
2021/05/09 07:15:37;;;;;;;2.10;1.60;;;17.00;99.90;;;;;;4194892;28;20032;-71
2021/05/09 07:17:39;;;;;;;2.53;1.48;;;17.10;99.90;;;;;;4193023;28;20028;-71
2021/05/09 07:19:40;;;;;;;3.03;1.65;;;17.20;99.90;;;;;;4193292;28;20492;-71
2021/05/09 07:21:44;;;;;;;3.30;1.45;;;17.20;99.90;;;;;;4200688;28;20072;-70
2021/05/09 07:23:47;;;;;;;3.03;1.52;;;17.30;99.90;;;;;;4199023;28;20090;-71
2021/05/09 07:25:49;;;;;;;;;;;17.40;99.90;;;;;;4196296;28;20070;-71
2021/05/09 07:27:50;;;;;;;3.10;1.40;;;17.40;99.90;;;;;;4200490;28;19927;-71
2021/05/09 07:29:50;;;;;;;2.35;1.50;;;17.50;99.90;;;;;;4194558;28;20044;-71
2021/05/09 07:31:51;;;;;;;2.80;1.52;;;17.60;99.90;;;;;;4196674;28;20029;-71
2021/05/09 07:33:51;;;;;;;5.97;1.75;;;17.60;99.90;;;;;;4202988;28;20491;-71
2021/05/09 07:35:52;;;;;;;5.35;1.45;;;17.80;99.90;;;;;;4188471;28;20037;-71
2021/05/09 07:37:53;;;;;;;1.83;1.38;;;17.80;99.90;;;;;;4205722;28;20058;-71
2021/05/09 07:39:53;;;;;;;1.83;1.30;;;17.90;99.90;;;;;;4197676;28;20059;-70
2021/05/09 07:41:54;;;;;;;3.55;1.33;;;18.00;99.90;;;;;;4200677;28;20114;-71
2021/05/09 07:43:54;;;;;;;3.65;1.75;;;18.10;99.90;;;;;;4194092;28;20029;-71
2021/05/09 07:45:55;;;;;;;2.13;1.40;;;18.20;99.90;;;;;;4199936;28;20032;-71
2021/05/09 07:47:56;;;;;;;3.35;1.55;;;18.20;99.90;;;;;;4204726;28;20119;-70
2021/05/09 07:49:56;;;;;;;1.80;1.30;;;18.30;99.90;;;;;;4199680;28;20064;-70
2021/05/09 07:51:57;;;;;;;2.55;1.52;;;18.40;99.90;;;;;;4199528;28;20032;-71
2021/05/09 07:53:57;;;;;;;3.28;1.73;;;18.50;99.90;;;;;;4202817;28;20117;-70
2021/05/09 07:55:59;;;;;;;2.50;1.45;;;18.60;99.90;;;;;;4195256;28;20032;-70
2021/05/09 07:57:59;;;;;;;3.22;1.48;;;18.70;99.90;;;;;;4203731;28;20448;-70
2021/05/09 08:00:00;;;;;;;4.65;1.77;;;18.80;99.90;;;;;;4199182;28;20037;-71
2021/05/09 08:02:01;;;;;;;2.50;1.65;;;18.90;99.90;;;;;;4209118;28;20499;-70
2021/05/09 08:04:04;;;;;;;4.72;1.48;;;19.10;99.90;;;;;;4194789;28;20033;-70
2021/05/09 08:06:05;;;;;;;3.88;1.42;;;19.10;99.90;;;;;;4195422;28;20730;-70
2021/05/09 08:08:05;;;;;;;2.10;1.20;;;19.20;99.90;;;;;;4201182;28;20040;-70
2021/05/09 08:10:06;;;;;;;5.28;1.45;;;19.30;99.90;;;;;;4192290;28;20044;-71
2021/05/09 08:12:07;;;;;;;3.05;1.40;;;19.40;99.90;;;;;;4193695;28;20068;-70
2021/05/09 08:14:08;;;;;;;1.95;1.40;;;19.40;99.90;;;;;;4193877;28;20052;-71
2021/05/09 08:16:09;;;;;;;2.83;1.35;;;19.50;99.90;;;;;;4193874;28;20032;-71
2021/05/09 08:18:09;;;;;;;2.92;1.52;;;19.50;99.90;;;;;;4200888;28;20032;-70
2021/05/09 08:20:10;;;;;;;2.22;1.30;;;19.60;99.90;;;;;;4205652;28;20038;-71
2021/05/09 08:22:11;;;;;;;3.75;1.60;;;19.70;99.90;;;;;;4205407;28;20036;-71
2021/05/09 08:24:12;;;;;;;5.10;1.77;;;19.80;99.90;;;;;;4205381;28;20181;-70
2021/05/09 08:26:12;;;;;;;1.65;1.30;;;19.80;99.90;;;;;;4203718;28;20636;-71
2021/05/09 08:28:13;;;;;;;4.82;1.60;;;19.90;99.90;;;;;;4199847;28;20097;-70
2021/05/09 08:30:15;;;;;;;1.83;1.27;;;20.00;99.90;;;;;;4207433;28;20094;-70
2021/05/09 08:32:15;;;;;;;2.10;1.43;;;20.00;99.90;;;;;;4200576;28;20024;-71
2021/05/09 08:34:16;;;;;;;2.90;1.50;;;20.10;99.90;;;;;;4193862;28;20035;-70
2021/05/09 08:36:17;;;;;;;2.28;1.10;;;20.10;99.90;;;;;;4201694;28;20044;-70
2021/05/09 08:38:17;;;;;;;3.53;1.50;;;20.20;99.90;;;;;;4200044;28;20083;-70
2021/05/09 08:40:18;;;;;;;3.58;1.88;;;20.20;99.90;;;;;;4192705;28;20034;-70
2021/05/09 08:42:20;;;;;;;4.22;1.15;;;20.30;99.90;;;;;;4195932;28;20466;-71
2021/05/09 08:44:20;;;;;;;3.45;1.55;;;20.40;99.90;;;;;;4201500;28;20036;-70
2021/05/09 08:46:22;;;;;;;7.05;1.75;;;20.40;99.90;;;;;;4194853;28;20045;-70
2021/05/09 08:48:24;;;;;;;4.18;1.60;;;20.50;99.90;;;;;;4200148;28;20033;-70
2021/05/09 08:50:26;;;;;;;;;;;20.60;99.90;;;;;;4193592;28;20041;-70
2021/05/09 08:52:27;;;;;;;4.38;1.88;;;20.70;99.90;;;;;;4195029;28;20474;-71
2021/05/09 08:54:27;;;;;;;3.78;1.38;;;20.90;99.90;;;;;;4191873;28;20043;-71
2021/05/09 08:56:28;;;;;;;6.35;1.77;;;21.00;99.90;;;;;;4195829;28;20486;-70
2021/05/09 08:58:29;;;;;;;3.95;1.40;;;21.10;99.90;;;;;;4192843;28;20036;-71
2021/05/09 09:00:29;;;;;;;2.03;1.70;;;21.20;99.90;;;;;;4192747;28;20040;-70
2021/05/09 09:02:32;;;;;;;1.83;1.40;;;21.30;99.90;;;;;;4192165;28;20036;-70
2021/05/09 09:04:46;;;;;;;5.93;1.77;;;21.40;99.90;;;;;;4193348;28;20078;-71
2021/05/09 09:06:47;;;;;;;2.92;1.38;;;21.50;99.90;;;;;;4186511;28;20063;-71
2021/05/09 09:08:53;;;;;;;4.32;1.30;;;21.60;99.90;;;;;;4195794;28;20037;-71
2021/05/09 09:10:54;;;;;;;3.58;1.30;;;21.70;99.90;;;;;;4194228;28;20040;-71
2021/05/09 09:12:54;;;;;;;3.97;1.55;;;21.80;99.90;;;;;;4194888;28;20288;-71
2021/05/09 09:14:59;;;;;;;3.85;1.80;;;22.00;99.90;;;;;;4192374;28;20029;-70
2021/05/09 09:17:14;;;;;;;6.43;1.30;;;22.10;99.90;;;;;;4193590;28;20113;-71
2021/05/09 09:19:14;;;;;;;2.63;1.20;;;22.20;99.90;;;;;;4190940;28;20057;-70
2021/05/09 09:21:31;;;;;;;2.60;1.30;;;22.20;99.90;;;;;;4192154;28;20040;-70
2021/05/09 09:23:45;;;;;;;3.97;1.33;;;22.20;99.90;;;;;;4191532;28;20048;-70
2021/05/09 09:25:46;;;;;;;5.72;1.50;;;22.10;99.90;;;;;;4192735;28;20488;-71
2021/05/09 09:27:48;;;;;;;2.67;1.50;;;22.20;99.90;;;;;;4191942;28;20020;-71
2021/05/09 09:29:59;;;;;;;2.58;1.17;;;22.20;99.90;;;;;;4191331;28;20040;-71
2021/05/09 09:32:02;;;;;;;4.88;1.38;;;22.30;99.90;;;;;;4192149;28;20043;-71
2021/05/09 09:34:03;;;;;;;4.05;1.38;;;22.40;99.90;;;;;;4187764;28;20119;-71
2021/05/09 09:36:19;;;;;;;3.42;1.58;;;22.50;99.90;;;;;;4192086;28;20037;-71
2021/05/09 09:38:27;;;;;;;2.58;1.45;;;22.60;99.90;;;;;;4191849;28;20044;-71
2021/05/09 09:40:27;;;;;;;3.58;1.75;;;22.70;99.90;;;;;;4190700;28;20455;-70
2021/05/09 09:42:48;;;;;;;2.40;1.38;;;22.70;99.90;;;;;;4189238;28;20039;-70
2021/05/09 09:44:48;;;;;;;2.53;1.45;;;22.70;99.90;;;;;;4190774;28;20048;-70
2021/05/09 09:46:51;;;;;;;2.90;1.38;;;22.80;99.90;;;;;;4191998;28;20036;-71
2021/05/09 09:48:52;;;;;;;6.50;1.58;;;22.80;99.90;;;;;;4195005;28;20499;-70
2021/05/09 09:50:53;;;;;;;4.30;1.20;;;22.80;99.20;;;;;;4191765;28;20115;-70
2021/05/09 09:52:53;;;;;;;2.03;1.27;;;22.80;99.60;;;;;;4190831;28;20052;-71
2021/05/09 09:54:54;;;;;;;2.60;1.50;;;22.90;99.90;;;;;;4194619;28;20428;-71
2021/05/09 09:56:54;;;;;;;2.58;1.13;;;23.00;99.50;;;;;;4191335;28;20041;-71
2021/05/09 09:59:02;;;;;;;4.82;1.50;;;23.00;99.50;;;;;;4193779;28;20036;-71
2021/05/09 10:01:03;;;;;;;3.78;1.52;;;23.10;99.10;;;;;;4191170;28;20079;-70
2021/05/09 10:03:05;;;;;;;2.92;1.52;;;23.20;98.50;;;;;;4193483;28;20040;-71
2021/05/09 10:05:06;;;;;;;2.90;1.50;;;23.20;98.30;;;;;;4191881;28;20042;-71
2021/05/09 10:07:08;;;;;;;2.38;1.60;;;23.20;98.00;;;;;;4194828;28;20485;-71
2021/05/09 10:09:09;;;;;;;3.17;1.48;;;23.20;98.30;;;;;;4205928;28;20871;-70
2021/05/09 10:11:10;;;;;;;3.03;1.35;;;23.20;98.20;;;;;;4201345;28;20040;-70
2021/05/09 10:13:11;;;;;;;5.85;1.80;;;23.20;97.80;;;;;;4197808;28;20039;-70
2021/05/09 10:15:12;;;;;;;6.18;2.15;;;23.10;97.50;;;;;;4205715;28;20128;-71
2021/05/09 10:17:14;;;;;;;2.17;1.40;;;23.00;96.90;;;;;;4201230;28;20075;-70
2021/05/09 10:19:20;;;;;;;2.58;1.38;;;22.90;97.10;;;;;;4196727;28;20044;-70
2021/05/09 10:21:31;;;;;;;7.13;1.52;;;22.90;97.40;;;;;;4202620;28;20124;-70
2021/05/09 10:23:32;;;;;;;5.60;1.60;;;22.90;97.30;;;;;;4201986;28;20032;-71
2021/05/09 10:25:51;;;;;;;2.53;1.35;;;22.90;97.50;;;;;;4202183;28;20115;-70
2021/05/09 10:27:52;;;;;;;3.13;1.20;;;23.00;97.80;;;;;;4190277;28;20079;-70
2021/05/09 10:29:52;;;;;;;4.25;1.60;;;23.00;97.70;;;;;;4193576;28;20472;-70
2021/05/09 10:31:53;;;;;;;3.60;1.20;;;23.00;97.80;;;;;;4198544;28;20044;-70
2021/05/09 10:33:54;;;;;;;2.25;1.10;;;23.10;98.90;;;;;;4203833;28;20459;-70